sensor_id;sensor_type;location;lat;lon;timestamp;temperature;humidity
38090;DHT22;23904;52.322;10.232;2023-02-14T00:01:43;3.50;99.90
38090;DHT22;23904;52.322;10.232;2023-02-14T00:04:11;3.50;99.90
38090;DHT22;23904;52.322;10.232;2023-02-14T00:06:37;3.50;99.90
38090;DHT22;23904;52.322;10.232;2023-02-14T00:09:05;3.40;99.90
38090;DHT22;23904;52.322;10.232;2023-02-14T00:11:32;3.50;99.90
38090;DHT22;23904;52.322;10.232;2023-02-14T00:13:58;3.50;99.90
38090;DHT22;23904;52.322;10.232;2023-02-14T00:16:42;3.60;99.90
38090;DHT22;23904;52.322;10.232;2023-02-14T00:19:11;3.60;99.90
38090;DHT22;23904;52.322;10.232;2023-02-14T00:21:39;3.60;99.90
38090;DHT22;23904;52.322;10.232;2023-02-14T00:24:12;3.50;99.90
38090;DHT22;23904;52.322;10.232;2023-02-14T00:26:40;3.50;99.90
38090;DHT22;23904;52.322;10.232;2023-02-14T00:29:12;3.40;99.90
38090;DHT22;23904;52.322;10.232;2023-02-14T00:31:40;3.30;99.90
38090;DHT22;23904;52.322;10.232;2023-02-14T00:34:06;3.20;99.90
38090;DHT22;23904;52.322;10.232;2023-02-14T00:36:33;3.20;99.90
38090;DHT22;23904;52.322;10.232;2023-02-14T00:39:01;3.20;99.90
38090;DHT22;23904;52.322;10.232;2023-02-14T00:41:28;3.30;99.90
38090;DHT22;23904;52.322;10.232;2023-02-14T00:43:53;3.40;99.90
38090;DHT22;23904;52.322;10.232;2023-02-14T00:46:20;3.50;99.90
38090;DHT22;23904;52.322;10.232;2023-02-14T00:48:46;3.50;99.90
38090;DHT22;23904;52.322;10.232;2023-02-14T00:51:13;3.50;99.90
38090;DHT22;23904;52.322;10.232;2023-02-14T00:53:39;3.50;99.90
38090;DHT22;23904;52.322;10.232;2023-02-14T00:56:06;3.50;99.90
38090;DHT22;23904;52.322;10.232;2023-02-14T00:58:32;3.50;99.90
38090;DHT22;23904;52.322;10.232;2023-02-14T01:00:58;3.50;99.90
38090;DHT22;23904;52.322;10.232;2023-02-14T01:03:24;3.50;99.90
38090;DHT22;23904;52.322;10.232;2023-02-14T01:05:52;3.50;99.90
38090;DHT22;23904;52.322;10.232;2023-02-14T01:08:19;3.50;99.90
38090;DHT22;23904;52.322;10.232;2023-02-14T01:10:45;3.50;99.90
38090;DHT22;23904;52.322;10.232;2023-02-14T01:13:12;3.50;99.90
38090;DHT22;23904;52.322;10.232;2023-02-14T01:15:43;3.60;99.90
38090;DHT22;23904;52.322;10.232;2023-02-14T01:18:10;3.50;99.90
38090;DHT22;23904;52.322;10.232;2023-02-14T01:20:36;3.60;99.90
38090;DHT22;23904;52.322;10.232;2023-02-14T01:23:02;3.60;99.90
38090;DHT22;23904;52.322;10.232;2023-02-14T01:25:28;3.50;99.90
38090;DHT22;23904;52.322;10.232;2023-02-14T01:27:54;3.60;99.90
38090;DHT22;23904;52.322;10.232;2023-02-14T01:30:20;3.60;99.90
38090;DHT22;23904;52.322;10.232;2023-02-14T01:32:45;3.60;99.90
38090;DHT22;23904;52.322;10.232;2023-02-14T01:35:11;3.70;99.90
38090;DHT22;23904;52.322;10.232;2023-02-14T01:37:37;3.70;99.90
38090;DHT22;23904;52.322;10.232;2023-02-14T01:40:05;3.80;99.90
38090;DHT22;23904;52.322;10.232;2023-02-14T01:42:33;3.80;99.90
38090;DHT22;23904;52.322;10.232;2023-02-14T01:45:34;3.80;99.90
38090;DHT22;23904;52.322;10.232;2023-02-14T01:48:00;3.90;99.90
38090;DHT22;23904;52.322;10.232;2023-02-14T01:50:29;3.90;99.90
38090;DHT22;23904;52.322;10.232;2023-02-14T01:53:11;3.90;99.90
38090;DHT22;23904;52.322;10.232;2023-02-14T01:55:42;3.90;99.90
38090;DHT22;23904;52.322;10.232;2023-02-14T01:58:14;3.90;99.90
38090;DHT22;23904;52.322;10.232;2023-02-14T02:00:44;3.90;99.90
38090;DHT22;23904;52.322;10.232;2023-02-14T02:03:27;3.80;99.90
38090;DHT22;23904;52.322;10.232;2023-02-14T02:06:28;3.80;99.90
38090;DHT22;23904;52.322;10.232;2023-02-14T02:09:21;3.90;99.90
38090;DHT22;23904;52.322;10.232;2023-02-14T02:11:51;4.00;99.90
38090;DHT22;23904;52.322;10.232;2023-02-14T02:14:19;3.90;99.90
38090;DHT22;23904;52.322;10.232;2023-02-14T02:29:14;3.90;99.90
38090;DHT22;23904;52.322;10.232;2023-02-14T02:35:13;3.90;99.90
38090;DHT22;23904;52.322;10.232;2023-02-14T02:38:01;3.90;99.90
38090;DHT22;23904;52.322;10.232;2023-02-14T02:40:55;3.90;99.90
38090;DHT22;23904;52.322;10.232;2023-02-14T02:46:35;3.90;99.90
38090;DHT22;23904;52.322;10.232;2023-02-14T02:58:24;3.70;99.90
38090;DHT22;23904;52.322;10.232;2023-02-14T03:00:52;3.60;99.90
38090;DHT22;23904;52.322;10.232;2023-02-14T03:03:20;3.50;99.90
38090;DHT22;23904;52.322;10.232;2023-02-14T03:06:06;3.40;99.90
38090;DHT22;23904;52.322;10.232;2023-02-14T03:08:31;3.50;99.90
38090;DHT22;23904;52.322;10.232;2023-02-14T03:10:58;3.40;99.90
38090;DHT22;23904;52.322;10.232;2023-02-14T03:13:41;3.40;99.90
38090;DHT22;23904;52.322;10.232;2023-02-14T03:25:41;3.20;99.90
38090;DHT22;23904;52.322;10.232;2023-02-14T03:28:41;3.20;99.90
38090;DHT22;23904;52.322;10.232;2023-02-14T03:34:08;3.10;99.90
38090;DHT22;23904;52.322;10.232;2023-02-14T03:36:45;3.10;99.90
38090;DHT22;23904;52.322;10.232;2023-02-14T03:39:19;3.10;99.90
38090;DHT22;23904;52.322;10.232;2023-02-14T03:41:59;3.10;99.90
38090;DHT22;23904;52.322;10.232;2023-02-14T03:44:30;3.10;99.90
38090;DHT22;23904;52.322;10.232;2023-02-14T03:47:04;3.10;99.90
38090;DHT22;23904;52.322;10.232;2023-02-14T03:49:35;3.00;99.90
38090;DHT22;23904;52.322;10.232;2023-02-14T03:52:06;3.00;99.90
38090;DHT22;23904;52.322;10.232;2023-02-14T03:54:34;3.00;99.90
38090;DHT22;23904;52.322;10.232;2023-02-14T03:57:16;3.00;99.90
38090;DHT22;23904;52.322;10.232;2023-02-14T03:59:45;3.00;99.90
38090;DHT22;23904;52.322;10.232;2023-02-14T04:02:16;3.00;99.90
38090;DHT22;23904;52.322;10.232;2023-02-14T04:04:47;2.90;99.90
38090;DHT22;23904;52.322;10.232;2023-02-14T04:07:20;2.90;99.90
38090;DHT22;23904;52.322;10.232;2023-02-14T04:09:47;2.80;99.90
38090;DHT22;23904;52.322;10.232;2023-02-14T04:12:13;2.80;99.90
38090;DHT22;23904;52.322;10.232;2023-02-14T04:14:40;2.80;99.90
38090;DHT22;23904;52.322;10.232;2023-02-14T04:17:06;2.80;99.90
38090;DHT22;23904;52.322;10.232;2023-02-14T04:19:50;2.80;99.90
38090;DHT22;23904;52.322;10.232;2023-02-14T04:22:16;2.70;99.90
38090;DHT22;23904;52.322;10.232;2023-02-14T04:24:42;2.70;99.90
38090;DHT22;23904;52.322;10.232;2023-02-14T04:27:07;2.60;99.90
38090;DHT22;23904;52.322;10.232;2023-02-14T04:29:44;2.60;99.90
38090;DHT22;23904;52.322;10.232;2023-02-14T04:32:14;2.60;99.90
38090;DHT22;23904;52.322;10.232;2023-02-14T04:34:41;2.70;99.90
38090;DHT22;23904;52.322;10.232;2023-02-14T04:37:07;2.70;99.90
38090;DHT22;23904;52.322;10.232;2023-02-14T04:39:34;2.70;99.90
38090;DHT22;23904;52.322;10.232;2023-02-14T04:42:00;2.70;99.90
38090;DHT22;23904;52.322;10.232;2023-02-14T04:44:27;2.70;99.90
38090;DHT22;23904;52.322;10.232;2023-02-14T04:46:53;2.70;99.90
38090;DHT22;23904;52.322;10.232;2023-02-14T04:49:18;2.70;99.90
38090;DHT22;23904;52.322;10.232;2023-02-14T04:51:44;2.70;99.90
38090;DHT22;23904;52.322;10.232;2023-02-14T04:54:10;2.60;99.90
38090;DHT22;23904;52.322;10.232;2023-02-14T04:56:36;2.60;99.90
38090;DHT22;23904;52.322;10.232;2023-02-14T04:59:02;2.60;99.90
38090;DHT22;23904;52.322;10.232;2023-02-14T05:01:28;2.60;99.90
38090;DHT22;23904;52.322;10.232;2023-02-14T05:03:53;2.60;99.90
38090;DHT22;23904;52.322;10.232;2023-02-14T05:06:19;2.60;99.90
38090;DHT22;23904;52.322;10.232;2023-02-14T05:08:44;2.60;99.90
38090;DHT22;23904;52.322;10.232;2023-02-14T05:11:11;2.50;99.90
38090;DHT22;23904;52.322;10.232;2023-02-14T05:13:37;2.50;99.90
38090;DHT22;23904;52.322;10.232;2023-02-14T05:16:02;2.40;99.90
38090;DHT22;23904;52.322;10.232;2023-02-14T05:18:28;2.40;99.90
38090;DHT22;23904;52.322;10.232;2023-02-14T05:20:54;2.40;99.90
38090;DHT22;23904;52.322;10.232;2023-02-14T05:23:20;2.40;99.90
38090;DHT22;23904;52.322;10.232;2023-02-14T05:25:50;2.30;99.90
38090;DHT22;23904;52.322;10.232;2023-02-14T05:28:17;2.30;99.90
38090;DHT22;23904;52.322;10.232;2023-02-14T05:30:43;2.30;99.90
38090;DHT22;23904;52.322;10.232;2023-02-14T05:33:08;2.20;99.90
38090;DHT22;23904;52.322;10.232;2023-02-14T05:35:34;2.20;99.90
38090;DHT22;23904;52.322;10.232;2023-02-14T05:38:00;2.20;99.90
38090;DHT22;23904;52.322;10.232;2023-02-14T05:40:26;2.20;99.90
38090;DHT22;23904;52.322;10.232;2023-02-14T05:42:52;2.10;99.90
38090;DHT22;23904;52.322;10.232;2023-02-14T05:45:18;2.00;99.90
38090;DHT22;23904;52.322;10.232;2023-02-14T05:47:44;2.00;99.90
38090;DHT22;23904;52.322;10.232;2023-02-14T05:50:10;1.90;99.90
38090;DHT22;23904;52.322;10.232;2023-02-14T05:52:37;1.90;99.90
38090;DHT22;23904;52.322;10.232;2023-02-14T05:55:03;1.80;99.90
38090;DHT22;23904;52.322;10.232;2023-02-14T05:57:29;1.70;99.90
38090;DHT22;23904;52.322;10.232;2023-02-14T05:59:55;1.70;99.90
38090;DHT22;23904;52.322;10.232;2023-02-14T06:02:20;1.70;99.90
38090;DHT22;23904;52.322;10.232;2023-02-14T06:04:46;1.70;99.90
38090;DHT22;23904;52.322;10.232;2023-02-14T06:07:11;1.70;99.90
38090;DHT22;23904;52.322;10.232;2023-02-14T06:09:37;1.70;99.90
38090;DHT22;23904;52.322;10.232;2023-02-14T06:12:02;1.70;99.90
38090;DHT22;23904;52.322;10.232;2023-02-14T06:14:30;1.70;99.90
38090;DHT22;23904;52.322;10.232;2023-02-14T06:16:55;1.80;99.90
38090;DHT22;23904;52.322;10.232;2023-02-14T06:19:21;1.80;99.90
38090;DHT22;23904;52.322;10.232;2023-02-14T06:21:47;1.80;99.90
38090;DHT22;23904;52.322;10.232;2023-02-14T06:24:13;1.90;99.90
38090;DHT22;23904;52.322;10.232;2023-02-14T06:26:38;1.90;99.90
38090;DHT22;23904;52.322;10.232;2023-02-14T06:29:04;1.90;99.90
38090;DHT22;23904;52.322;10.232;2023-02-14T06:31:30;1.90;99.90
38090;DHT22;23904;52.322;10.232;2023-02-14T06:33:55;1.90;99.90
38090;DHT22;23904;52.322;10.232;2023-02-14T06:36:21;1.90;99.90
38090;DHT22;23904;52.322;10.232;2023-02-14T06:38:48;1.90;99.90
38090;DHT22;23904;52.322;10.232;2023-02-14T06:41:15;1.90;99.90
38090;DHT22;23904;52.322;10.232;2023-02-14T06:43:45;1.80;99.90
38090;DHT22;23904;52.322;10.232;2023-02-14T06:46:15;1.70;99.90
38090;DHT22;23904;52.322;10.232;2023-02-14T06:48:42;1.70;99.90
38090;DHT22;23904;52.322;10.232;2023-02-14T06:51:08;1.70;99.90
38090;DHT22;23904;52.322;10.232;2023-02-14T06:53:34;1.70;99.90
38090;DHT22;23904;52.322;10.232;2023-02-14T06:55:59;1.80;99.90
38090;DHT22;23904;52.322;10.232;2023-02-14T06:58:25;1.80;99.90
38090;DHT22;23904;52.322;10.232;2023-02-14T07:00:51;1.80;99.90
38090;DHT22;23904;52.322;10.232;2023-02-14T07:03:19;1.80;99.90
38090;DHT22;23904;52.322;10.232;2023-02-14T07:05:44;1.80;99.90
38090;DHT22;23904;52.322;10.232;2023-02-14T07:08:10;1.80;99.90
38090;DHT22;23904;52.322;10.232;2023-02-14T07:10:36;1.80;99.90
38090;DHT22;23904;52.322;10.232;2023-02-14T07:13:02;1.90;99.90
38090;DHT22;23904;52.322;10.232;2023-02-14T07:15:28;1.90;99.90
38090;DHT22;23904;52.322;10.232;2023-02-14T07:17:54;1.90;99.90
38090;DHT22;23904;52.322;10.232;2023-02-14T07:20:19;1.90;99.90
38090;DHT22;23904;52.322;10.232;2023-02-14T07:22:45;2.00;99.90
38090;DHT22;23904;52.322;10.232;2023-02-14T07:25:11;2.10;99.90
38090;DHT22;23904;52.322;10.232;2023-02-14T07:27:38;2.10;99.90
38090;DHT22;23904;52.322;10.232;2023-02-14T07:30:05;2.10;99.90
38090;DHT22;23904;52.322;10.232;2023-02-14T07:32:32;2.10;99.90
38090;DHT22;23904;52.322;10.232;2023-02-14T07:34:57;2.20;99.90
38090;DHT22;23904;52.322;10.232;2023-02-14T07:37:23;2.20;99.90
38090;DHT22;23904;52.322;10.232;2023-02-14T07:39:48;2.40;99.90
38090;DHT22;23904;52.322;10.232;2023-02-14T07:42:14;2.60;99.90
38090;DHT22;23904;52.322;10.232;2023-02-14T07:44:40;2.80;99.90
38090;DHT22;23904;52.322;10.232;2023-02-14T07:47:07;3.00;99.90
38090;DHT22;23904;52.322;10.232;2023-02-14T07:49:33;3.10;99.90
38090;DHT22;23904;52.322;10.232;2023-02-14T07:52:00;3.10;99.90
38090;DHT22;23904;52.322;10.232;2023-02-14T07:54:26;3.10;99.90
38090;DHT22;23904;52.322;10.232;2023-02-14T07:56:51;3.00;99.90
38090;DHT22;23904;52.322;10.232;2023-02-14T07:59:17;3.00;99.90
38090;DHT22;23904;52.322;10.232;2023-02-14T08:01:42;2.90;99.90
38090;DHT22;23904;52.322;10.232;2023-02-14T08:04:08;3.00;99.90
38090;DHT22;23904;52.322;10.232;2023-02-14T08:06:34;2.90;99.90
38090;DHT22;23904;52.322;10.232;2023-02-14T08:08:59;2.80;99.90
38090;DHT22;23904;52.322;10.232;2023-02-14T08:11:25;2.80;99.90
38090;DHT22;23904;52.322;10.232;2023-02-14T08:14:10;2.80;99.90
38090;DHT22;23904;52.322;10.232;2023-02-14T08:16:36;2.80;99.90
38090;DHT22;23904;52.322;10.232;2023-02-14T08:19:02;2.80;99.90
38090;DHT22;23904;52.322;10.232;2023-02-14T08:21:29;2.80;99.90
38090;DHT22;23904;52.322;10.232;2023-02-14T08:23:55;2.70;99.90
38090;DHT22;23904;52.322;10.232;2023-02-14T08:26:21;2.70;99.90
38090;DHT22;23904;52.322;10.232;2023-02-14T08:28:47;2.70;99.90
38090;DHT22;23904;52.322;10.232;2023-02-14T08:31:27;2.70;99.90
38090;DHT22;23904;52.322;10.232;2023-02-14T08:33:54;2.70;99.90
38090;DHT22;23904;52.322;10.232;2023-02-14T08:36:20;2.60;99.90
38090;DHT22;23904;52.322;10.232;2023-02-14T08:38:46;2.60;99.90
38090;DHT22;23904;52.322;10.232;2023-02-14T08:41:13;2.60;99.90
38090;DHT22;23904;52.322;10.232;2023-02-14T08:43:40;2.60;99.90
38090;DHT22;23904;52.322;10.232;2023-02-14T08:46:05;2.60;99.90
38090;DHT22;23904;52.322;10.232;2023-02-14T08:48:31;2.80;99.90
38090;DHT22;23904;52.322;10.232;2023-02-14T08:50:56;2.80;99.90
38090;DHT22;23904;52.322;10.232;2023-02-14T08:53:22;2.90;99.90
38090;DHT22;23904;52.322;10.232;2023-02-14T08:55:47;3.00;99.90
38090;DHT22;23904;52.322;10.232;2023-02-14T08:58:13;3.00;99.90
38090;DHT22;23904;52.322;10.232;2023-02-14T09:00:39;3.10;99.90
38090;DHT22;23904;52.322;10.232;2023-02-14T09:03:06;3.20;99.90
38090;DHT22;23904;52.322;10.232;2023-02-14T09:05:32;3.20;99.90
38090;DHT22;23904;52.322;10.232;2023-02-14T09:07:58;3.30;99.90
38090;DHT22;23904;52.322;10.232;2023-02-14T09:10:26;3.40;99.90
38090;DHT22;23904;52.322;10.232;2023-02-14T09:12:53;3.50;99.90
38090;DHT22;23904;52.322;10.232;2023-02-14T09:15:19;3.50;99.90
38090;DHT22;23904;52.322;10.232;2023-02-14T09:17:44;3.60;99.90
38090;DHT22;23904;52.322;10.232;2023-02-14T09:20:13;3.70;99.90
38090;DHT22;23904;52.322;10.232;2023-02-14T09:22:40;3.80;99.90
38090;DHT22;23904;52.322;10.232;2023-02-14T09:25:06;3.80;99.90
38090;DHT22;23904;52.322;10.232;2023-02-14T09:27:32;3.80;99.90
38090;DHT22;23904;52.322;10.232;2023-02-14T09:29:57;3.80;99.90
38090;DHT22;23904;52.322;10.232;2023-02-14T09:32:23;4.30;99.90
38090;DHT22;23904;52.322;10.232;2023-02-14T09:34:50;5.30;99.90
38090;DHT22;23904;52.322;10.232;2023-02-14T09:37:35;6.60;99.90
38090;DHT22;23904;52.322;10.232;2023-02-14T09:40:19;8.50;99.90
38090;DHT22;23904;52.322;10.232;2023-02-14T09:45:37;12.00;99.90
38090;DHT22;23904;52.322;10.232;2023-02-14T09:48:18;12.80;99.90
38090;DHT22;23904;52.322;10.232;2023-02-14T09:51:24;14.20;99.70
38090;DHT22;23904;52.322;10.232;2023-02-14T09:54:11;15.40;96.20
38090;DHT22;23904;52.322;10.232;2023-02-14T09:56:53;16.60;94.10
38090;DHT22;23904;52.322;10.232;2023-02-14T09:59:45;17.10;88.70
38090;DHT22;23904;52.322;10.232;2023-02-14T10:05:35;15.50;92.70
38090;DHT22;23904;52.322;10.232;2023-02-14T10:11:08;16.70;90.60
38090;DHT22;23904;52.322;10.232;2023-02-14T10:16:36;17.70;87.40
38090;DHT22;23904;52.322;10.232;2023-02-14T10:22:16;20.40;75.80
38090;DHT22;23904;52.322;10.232;2023-02-14T10:24:54;21.20;70.50
38090;DHT22;23904;52.322;10.232;2023-02-14T10:27:32;22.00;66.90
38090;DHT22;23904;52.322;10.232;2023-02-14T10:30:00;22.50;64.90
38090;DHT22;23904;52.322;10.232;2023-02-14T10:32:59;22.00;63.30
38090;DHT22;23904;52.322;10.232;2023-02-14T10:35:49;21.30;67.80
38090;DHT22;23904;52.322;10.232;2023-02-14T10:41:16;22.70;61.30
38090;DHT22;23904;52.322;10.232;2023-02-14T10:47:03;23.30;59.50
38090;DHT22;23904;52.322;10.232;2023-02-14T10:52:22;23.50;59.50
38090;DHT22;23904;52.322;10.232;2023-02-14T10:54:56;24.20;56.50
38090;DHT22;23904;52.322;10.232;2023-02-14T10:57:35;23.40;57.40
38090;DHT22;23904;52.322;10.232;2023-02-14T11:00:07;23.00;57.70
38090;DHT22;23904;52.322;10.232;2023-02-14T11:02:44;22.00;58.60
38090;DHT22;23904;52.322;10.232;2023-02-14T11:05:41;20.30;63.10
38090;DHT22;23904;52.322;10.232;2023-02-14T11:08:21;19.20;67.90
38090;DHT22;23904;52.322;10.232;2023-02-14T11:11:09;18.60;70.70
38090;DHT22;23904;52.322;10.232;2023-02-14T11:13:38;17.90;72.50
38090;DHT22;23904;52.322;10.232;2023-02-14T11:16:07;16.90;76.30
38090;DHT22;23904;52.322;10.232;2023-02-14T11:18:35;16.60;80.20
38090;DHT22;23904;52.322;10.232;2023-02-14T11:21:08;16.40;79.90
38090;DHT22;23904;52.322;10.232;2023-02-14T11:23:41;16.30;82.10
38090;DHT22;23904;52.322;10.232;2023-02-14T11:26:48;16.30;82.40
38090;DHT22;23904;52.322;10.232;2023-02-14T11:29:12;16.00;85.10
38090;DHT22;23904;52.322;10.232;2023-02-14T11:31:41;15.40;87.70
38090;DHT22;23904;52.322;10.232;2023-02-14T11:34:35;15.20;90.20
38090;DHT22;23904;52.322;10.232;2023-02-14T11:37:38;15.30;90.60
38090;DHT22;23904;52.322;10.232;2023-02-14T11:40:25;16.00;90.30
38090;DHT22;23904;52.322;10.232;2023-02-14T11:43:24;16.80;88.10
38090;DHT22;23904;52.322;10.232;2023-02-14T11:49:22;18.30;83.20
38090;DHT22;23904;52.322;10.232;2023-02-14T11:51:59;18.70;79.00
38090;DHT22;23904;52.322;10.232;2023-02-14T11:54:35;18.70;80.50
38090;DHT22;23904;52.322;10.232;2023-02-14T11:59:41;18.80;80.00
38090;DHT22;23904;52.322;10.232;2023-02-14T12:05:19;18.70;80.70
38090;DHT22;23904;52.322;10.232;2023-02-14T12:07:54;19.00;80.00
38090;DHT22;23904;52.322;10.232;2023-02-14T12:10:22;19.50;76.80
38090;DHT22;23904;52.322;10.232;2023-02-14T12:15:48;20.30;76.00
38090;DHT22;23904;52.322;10.232;2023-02-14T12:21:34;21.40;70.60
38090;DHT22;23904;52.322;10.232;2023-02-14T12:24:22;21.90;70.60
38090;DHT22;23904;52.322;10.232;2023-02-14T12:30:05;23.30;66.10
38090;DHT22;23904;52.322;10.232;2023-02-14T12:32:30;24.30;62.60
38090;DHT22;23904;52.322;10.232;2023-02-14T12:35:02;24.30;60.00
38090;DHT22;23904;52.322;10.232;2023-02-14T12:40:48;23.60;61.60
38090;DHT22;23904;52.322;10.232;2023-02-14T12:43:48;23.50;61.00
38090;DHT22;23904;52.322;10.232;2023-02-14T12:49:41;21.90;65.40
38090;DHT22;23904;52.322;10.232;2023-02-14T12:53:00;20.60;69.10
38090;DHT22;23904;52.322;10.232;2023-02-14T12:55:44;20.30;70.60
38090;DHT22;23904;52.322;10.232;2023-02-14T13:07:51;16.70;83.90
38090;DHT22;23904;52.322;10.232;2023-02-14T13:10:54;15.90;88.70
38090;DHT22;23904;52.322;10.232;2023-02-14T13:13:57;15.20;91.60
38090;DHT22;23904;52.322;10.232;2023-02-14T13:16:48;15.20;92.70
38090;DHT22;23904;52.322;10.232;2023-02-14T13:19:40;15.50;92.50
38090;DHT22;23904;52.322;10.232;2023-02-14T13:22:16;16.00;91.90
38090;DHT22;23904;52.322;10.232;2023-02-14T13:24:46;16.50;90.90
38090;DHT22;23904;52.322;10.232;2023-02-14T13:27:23;16.90;89.50
38090;DHT22;23904;52.322;10.232;2023-02-14T13:29:59;16.90;90.30
38090;DHT22;23904;52.322;10.232;2023-02-14T13:32:30;17.10;90.10
38090;DHT22;23904;52.322;10.232;2023-02-14T13:35:01;17.50;87.70
38090;DHT22;23904;52.322;10.232;2023-02-14T13:37:27;18.00;85.50
38090;DHT22;23904;52.322;10.232;2023-02-14T13:39:59;17.90;85.30
38090;DHT22;23904;52.322;10.232;2023-02-14T13:50:58;19.60;79.60
38090;DHT22;23904;52.322;10.232;2023-02-14T13:53:50;19.80;78.40
38090;DHT22;23904;52.322;10.232;2023-02-14T13:58:50;20.10;76.50
38090;DHT22;23904;52.322;10.232;2023-02-14T14:20:46;14.30;94.30
38090;DHT22;23904;52.322;10.232;2023-02-14T14:23:36;13.70;95.50
38090;DHT22;23904;52.322;10.232;2023-02-14T14:26:29;13.20;97.10
38090;DHT22;23904;52.322;10.232;2023-02-14T14:29:00;13.10;98.40
38090;DHT22;23904;52.322;10.232;2023-02-14T14:31:27;12.70;99.50
38090;DHT22;23904;52.322;10.232;2023-02-14T14:34:01;12.50;99.90
38090;DHT22;23904;52.322;10.232;2023-02-14T14:36:27;12.30;99.90
38090;DHT22;23904;52.322;10.232;2023-02-14T14:38:54;12.20;99.90
38090;DHT22;23904;52.322;10.232;2023-02-14T14:41:26;12.20;99.90
38090;DHT22;23904;52.322;10.232;2023-02-14T14:43:53;12.30;99.90
38090;DHT22;23904;52.322;10.232;2023-02-14T14:46:19;12.20;99.90
38090;DHT22;23904;52.322;10.232;2023-02-14T14:48:46;11.90;99.90
38090;DHT22;23904;52.322;10.232;2023-02-14T14:51:27;11.70;99.90
38090;DHT22;23904;52.322;10.232;2023-02-14T14:53:58;11.40;99.90
38090;DHT22;23904;52.322;10.232;2023-02-14T14:56:27;11.30;99.90
38090;DHT22;23904;52.322;10.232;2023-02-14T14:58:55;11.20;99.90
38090;DHT22;23904;52.322;10.232;2023-02-14T15:01:37;11.10;99.90
38090;DHT22;23904;52.322;10.232;2023-02-14T15:04:24;11.00;99.90
38090;DHT22;23904;52.322;10.232;2023-02-14T15:06:57;10.80;99.90
38090;DHT22;23904;52.322;10.232;2023-02-14T15:09:40;10.70;99.90
38090;DHT22;23904;52.322;10.232;2023-02-14T15:12:08;10.50;99.90
38090;DHT22;23904;52.322;10.232;2023-02-14T15:14:54;10.40;99.90
38090;DHT22;23904;52.322;10.232;2023-02-14T15:17:24;10.30;99.90
38090;DHT22;23904;52.322;10.232;2023-02-14T15:19:54;10.20;99.90
38090;DHT22;23904;52.322;10.232;2023-02-14T15:22:47;10.00;99.90
38090;DHT22;23904;52.322;10.232;2023-02-14T15:25:18;10.00;99.90
38090;DHT22;23904;52.322;10.232;2023-02-14T15:27:46;10.00;99.90
38090;DHT22;23904;52.322;10.232;2023-02-14T15:32:48;9.80;99.90
38090;DHT22;23904;52.322;10.232;2023-02-14T15:35:17;9.70;99.90
38090;DHT22;23904;52.322;10.232;2023-02-14T15:37:47;9.60;99.90
38090;DHT22;23904;52.322;10.232;2023-02-14T15:40:22;9.50;99.90
38090;DHT22;23904;52.322;10.232;2023-02-14T15:42:50;9.50;99.90
38090;DHT22;23904;52.322;10.232;2023-02-14T15:47:52;9.40;99.90
38090;DHT22;23904;52.322;10.232;2023-02-14T15:50:24;9.30;99.90
38090;DHT22;23904;52.322;10.232;2023-02-14T15:52:55;9.30;99.90
38090;DHT22;23904;52.322;10.232;2023-02-14T15:55:29;9.20;99.90
38090;DHT22;23904;52.322;10.232;2023-02-14T15:57:59;9.10;99.90
38090;DHT22;23904;52.322;10.232;2023-02-14T16:00:30;9.10;99.90
38090;DHT22;23904;52.322;10.232;2023-02-14T16:03:04;9.00;99.90
38090;DHT22;23904;52.322;10.232;2023-02-14T16:05:32;9.00;99.90
38090;DHT22;23904;52.322;10.232;2023-02-14T16:10:31;8.80;99.90
38090;DHT22;23904;52.322;10.232;2023-02-14T16:13:04;8.70;99.90
38090;DHT22;23904;52.322;10.232;2023-02-14T16:15:35;8.60;99.90
38090;DHT22;23904;52.322;10.232;2023-02-14T16:18:04;8.60;99.90
38090;DHT22;23904;52.322;10.232;2023-02-14T16:20:43;8.50;99.90
38090;DHT22;23904;52.322;10.232;2023-02-14T16:23:22;8.40;99.90
38090;DHT22;23904;52.322;10.232;2023-02-14T16:25:50;8.30;99.90
38090;DHT22;23904;52.322;10.232;2023-02-14T16:28:16;8.20;99.90
38090;DHT22;23904;52.322;10.232;2023-02-14T16:30:43;8.10;99.90
38090;DHT22;23904;52.322;10.232;2023-02-14T16:33:20;8.00;99.90
38090;DHT22;23904;52.322;10.232;2023-02-14T16:35:49;7.90;99.90
38090;DHT22;23904;52.322;10.232;2023-02-14T16:38:17;7.80;99.90
38090;DHT22;23904;52.322;10.232;2023-02-14T16:40:46;7.70;99.90
38090;DHT22;23904;52.322;10.232;2023-02-14T16:43:15;7.60;99.90
38090;DHT22;23904;52.322;10.232;2023-02-14T16:45:43;7.50;99.90
38090;DHT22;23904;52.322;10.232;2023-02-14T16:48:12;7.40;99.90
38090;DHT22;23904;52.322;10.232;2023-02-14T16:50:40;7.30;99.90
38090;DHT22;23904;52.322;10.232;2023-02-14T16:53:12;7.20;99.90
38090;DHT22;23904;52.322;10.232;2023-02-14T16:55:43;7.20;99.90
38090;DHT22;23904;52.322;10.232;2023-02-14T16:58:09;7.10;99.90
38090;DHT22;23904;52.322;10.232;2023-02-14T17:00:35;7.00;99.90
38090;DHT22;23904;52.322;10.232;2023-02-14T17:03:00;6.90;99.90
38090;DHT22;23904;52.322;10.232;2023-02-14T17:05:33;6.80;99.90
38090;DHT22;23904;52.322;10.232;2023-02-14T17:08:01;6.70;99.90
38090;DHT22;23904;52.322;10.232;2023-02-14T17:10:28;6.60;99.90
38090;DHT22;23904;52.322;10.232;2023-02-14T17:12:57;6.50;99.90
38090;DHT22;23904;52.322;10.232;2023-02-14T17:15:23;6.50;99.90
38090;DHT22;23904;52.322;10.232;2023-02-14T17:17:51;6.50;99.90
38090;DHT22;23904;52.322;10.232;2023-02-14T17:20:20;6.40;99.90
38090;DHT22;23904;52.322;10.232;2023-02-14T17:22:47;6.40;99.90
38090;DHT22;23904;52.322;10.232;2023-02-14T17:25:12;6.40;99.90
38090;DHT22;23904;52.322;10.232;2023-02-14T17:27:38;6.30;99.90
38090;DHT22;23904;52.322;10.232;2023-02-14T17:30:09;6.30;99.90
38090;DHT22;23904;52.322;10.232;2023-02-14T17:32:35;6.30;99.90
38090;DHT22;23904;52.322;10.232;2023-02-14T17:35:01;6.40;99.90
38090;DHT22;23904;52.322;10.232;2023-02-14T17:37:29;6.40;99.90
38090;DHT22;23904;52.322;10.232;2023-02-14T17:39:55;6.40;99.90
38090;DHT22;23904;52.322;10.232;2023-02-14T17:42:21;6.40;99.90
38090;DHT22;23904;52.322;10.232;2023-02-14T17:44:46;6.40;99.90
38090;DHT22;23904;52.322;10.232;2023-02-14T17:47:13;6.40;99.90
38090;DHT22;23904;52.322;10.232;2023-02-14T17:49:40;6.40;99.90
38090;DHT22;23904;52.322;10.232;2023-02-14T17:52:06;6.50;99.90
38090;DHT22;23904;52.322;10.232;2023-02-14T17:54:36;6.40;99.90
38090;DHT22;23904;52.322;10.232;2023-02-14T17:57:02;6.50;99.90
38090;DHT22;23904;52.322;10.232;2023-02-14T17:59:29;6.50;99.90
38090;DHT22;23904;52.322;10.232;2023-02-14T18:01:56;6.40;99.90
38090;DHT22;23904;52.322;10.232;2023-02-14T18:04:22;6.40;99.90
38090;DHT22;23904;52.322;10.232;2023-02-14T18:06:48;6.30;99.90
38090;DHT22;23904;52.322;10.232;2023-02-14T18:09:14;6.30;99.90